sensor_id;sensor_type;location;lat;lon;timestamp;pressure;altitude;pressure_sealevel;temperature;humidity
6423;BME280;3244;42.708;23.288;2023-02-12T00:01:37;96031.00;;;1.38;47.14
6423;BME280;3244;42.708;23.288;2023-02-12T00:04:04;96035.41;;;1.51;47.52
6423;BME280;3244;42.708;23.288;2023-02-12T00:06:31;96031.19;;;1.47;47.01
6423;BME280;3244;42.708;23.288;2023-02-12T00:08:57;96035.59;;;1.62;46.41
6423;BME280;3244;42.708;23.288;2023-02-12T00:11:26;96038.03;;;1.59;46.93
6423;BME280;3244;42.708;23.288;2023-02-12T00:13:54;96033.97;;;1.64;46.97
6423;BME280;3244;42.708;23.288;2023-02-12T00:16:24;96033.97;;;1.64;46.69
6423;BME280;3244;42.708;23.288;2023-02-12T00:18:52;96026.28;;;1.55;47.28
6423;BME280;3244;42.708;23.288;2023-02-12T00:21:19;96043.81;;;1.55;46.52
6423;BME280;3244;42.708;23.288;2023-02-12T00:23:46;96032.91;;;1.53;47.30
6423;BME280;3244;42.708;23.288;2023-02-12T00:26:15;96032.09;;;1.54;46.73
6423;BME280;3244;42.708;23.288;2023-02-12T00:28:42;96037.81;;;1.44;46.97
6423;BME280;3244;42.708;23.288;2023-02-12T00:31:13;96033.69;;;1.49;47.79
6423;BME280;3244;42.708;23.288;2023-02-12T00:33:41;96019.47;;;1.46;47.64
6423;BME280;3244;42.708;23.288;2023-02-12T00:36:09;96022.16;;;1.57;47.59
6423;BME280;3244;42.708;23.288;2023-02-12T00:38:38;96004.44;;;1.45;47.10
6423;BME280;3244;42.708;23.288;2023-02-12T00:41:05;96010.25;;;1.44;47.70
6423;BME280;3244;42.708;23.288;2023-02-12T00:43:32;96002.72;;;1.44;47.38
6423;BME280;3244;42.708;23.288;2023-02-12T00:45:59;96009.63;;;1.58;46.96
6423;BME280;3244;42.708;23.288;2023-02-12T00:48:25;95996.13;;;1.50;47.19
6423;BME280;3244;42.708;23.288;2023-02-12T00:50:53;95999.66;;;1.60;47.46
6423;BME280;3244;42.708;23.288;2023-02-12T00:53:20;95992.13;;;1.60;46.75
6423;BME280;3244;42.708;23.288;2023-02-12T00:55:47;95989.53;;;1.55;46.69
6423;BME280;3244;42.708;23.288;2023-02-12T00:58:13;95993.66;;;1.52;47.21
6423;BME280;3244;42.708;23.288;2023-02-12T01:00:41;95985.25;;;1.47;47.01
6423;BME280;3244;42.708;23.288;2023-02-12T01:03:07;95982.63;;;1.39;47.95
6423;BME280;3244;42.708;23.288;2023-02-12T01:05:35;95987.00;;;1.54;46.99
6423;BME280;3244;42.708;23.288;2023-02-12T01:08:04;95993.72;;;1.55;47.27
6423;BME280;3244;42.708;23.288;2023-02-12T01:10:31;95995.28;;;1.47;47.70
6423;BME280;3244;42.708;23.288;2023-02-12T01:12:57;96009.38;;;1.42;48.16
6423;BME280;3244;42.708;23.288;2023-02-12T01:15:24;96003.56;;;1.43;48.20
6423;BME280;3244;42.708;23.288;2023-02-12T01:17:52;96006.97;;;1.46;48.18
6423;BME280;3244;42.708;23.288;2023-02-12T01:20:21;96018.66;;;1.49;47.82
6423;BME280;3244;42.708;23.288;2023-02-12T01:22:48;96012.81;;;1.47;48.45
6423;BME280;3244;42.708;23.288;2023-02-12T01:25:17;96013.63;;;1.46;48.55
6423;BME280;3244;42.708;23.288;2023-02-12T01:27:44;96011.88;;;1.42;48.54
6423;BME280;3244;42.708;23.288;2023-02-12T01:30:12;96013.63;;;1.46;48.04
6423;BME280;3244;42.708;23.288;2023-02-12T01:32:39;96016.22;;;1.53;48.37
6423;BME280;3244;42.708;23.288;2023-02-12T01:35:07;96008.84;;;1.61;48.10
6423;BME280;3244;42.708;23.288;2023-02-12T01:37:36;96013.00;;;1.59;48.01
6423;BME280;3244;42.708;23.288;2023-02-12T01:40:03;95997.88;;;1.54;48.50
6423;BME280;3244;42.708;23.288;2023-02-12T01:42:32;95997.06;;;1.55;48.71
6423;BME280;3244;42.708;23.288;2023-02-12T01:48:12;95981.25;;;1.59;48.75
6423;BME280;3244;42.708;23.288;2023-02-12T01:50:40;95976.19;;;1.56;48.84
6423;BME280;3244;42.708;23.288;2023-02-12T01:53:08;95972.91;;;1.59;48.46
6423;BME280;3244;42.708;23.288;2023-02-12T01:55:35;95975.38;;;1.57;48.33
6423;BME280;3244;42.708;23.288;2023-02-12T01:58:03;95977.91;;;1.59;49.35
6423;BME280;3244;42.708;23.288;2023-02-12T02:00:30;95985.25;;;1.47;49.05
6423;BME280;3244;42.708;23.288;2023-02-12T02:02:58;95975.13;;;1.41;49.66
6423;BME280;3244;42.708;23.288;2023-02-12T02:05:32;95986.66;;;1.32;50.18
6423;BME280;3244;42.708;23.288;2023-02-12T02:08:03;95993.13;;;1.18;50.28
6423;BME280;3244;42.708;23.288;2023-02-12T02:10:30;96000.59;;;1.17;50.96
6423;BME280;3244;42.708;23.288;2023-02-12T02:12:57;96000.66;;;1.20;50.75
6423;BME280;3244;42.708;23.288;2023-02-12T02:15:46;95991.44;;;1.17;51.65
6423;BME280;3244;42.708;23.288;2023-02-12T02:18:17;95982.94;;;1.09;51.23
6423;BME280;3244;42.708;23.288;2023-02-12T02:21:12;96001.28;;;1.08;51.55
6423;BME280;3244;42.708;23.288;2023-02-12T02:24:10;95994.63;;;1.10;52.51
6423;BME280;3244;42.708;23.288;2023-02-12T02:27:15;95982.91;;;1.08;52.89
6423;BME280;3244;42.708;23.288;2023-02-12T02:30:06;95972.88;;;1.06;52.60
6423;BME280;3244;42.708;23.288;2023-02-12T02:32:37;95973.66;;;1.03;53.24
6423;BME280;3244;42.708;23.288;2023-02-12T02:35:11;95979.44;;;1.01;52.66
6423;BME280;3244;42.708;23.288;2023-02-12T02:37:46;95971.09;;;0.99;53.22
6423;BME280;3244;42.708;23.288;2023-02-12T02:40:17;95969.16;;;0.86;53.66
6423;BME280;3244;42.708;23.288;2023-02-12T02:42:51;95964.09;;;0.83;53.80
6423;BME280;3244;42.708;23.288;2023-02-12T02:45:24;95974.28;;;0.92;53.66
6423;BME280;3244;42.708;23.288;2023-02-12T02:47:57;95982.94;;;1.09;53.16
6423;BME280;3244;42.708;23.288;2023-02-12T02:50:27;95984.50;;;1.04;53.40
6423;BME280;3244;42.708;23.288;2023-02-12T02:52:59;95974.44;;;1.01;53.24
6423;BME280;3244;42.708;23.288;2023-02-12T02:55:31;95987.16;;;1.12;53.67
6423;BME280;3244;42.708;23.288;2023-02-12T02:58:01;95987.16;;;1.12;52.74
6423;BME280;3244;42.708;23.288;2023-02-12T03:00:36;95983.59;;;0.97;53.05
6423;BME280;3244;42.708;23.288;2023-02-12T03:03:08;95982.09;;;1.09;53.72
6423;BME280;3244;42.708;23.288;2023-02-12T03:05:39;95990.75;;;1.27;52.39
6423;BME280;3244;42.708;23.288;2023-02-12T03:08:10;95984.88;;;1.25;52.32
6423;BME280;3244;42.708;23.288;2023-02-12T03:10:41;95991.66;;;1.31;52.55
6423;BME280;3244;42.708;23.288;2023-02-12T03:13:11;95990.09;;;1.38;52.34
6423;BME280;3244;42.708;23.288;2023-02-12T03:15:43;95986.84;;;1.42;53.06
6423;BME280;3244;42.708;23.288;2023-02-12T03:18:16;95974.41;;;1.46;53.23
6423;BME280;3244;42.708;23.288;2023-02-12T03:20:48;95982.66;;;1.41;53.16
6423;BME280;3244;42.708;23.288;2023-02-12T03:23:21;95973.50;;;1.43;52.99
6423;BME280;3244;42.708;23.288;2023-02-12T03:25:53;95971.69;;;1.35;52.38
6423;BME280;3244;42.708;23.288;2023-02-12T03:28:25;95971.56;;;1.28;52.63
6423;BME280;3244;42.708;23.288;2023-02-12T03:30:59;95964.00;;;1.23;52.81
6423;BME280;3244;42.708;23.288;2023-02-12T03:33:33;95961.69;;;1.35;53.05
6423;BME280;3244;42.708;23.288;2023-02-12T03:36:08;95960.22;;;1.47;52.19
6423;BME280;3244;42.708;23.288;2023-02-12T03:38:42;95968.50;;;1.43;53.27
6423;BME280;3244;42.708;23.288;2023-02-12T03:41:16;95964.34;;;1.45;53.00
6423;BME280;3244;42.708;23.288;2023-02-12T03:43:49;95961.91;;;1.51;51.94
6423;BME280;3244;42.708;23.288;2023-02-12T03:46:21;95962.00;;;1.57;51.99
6423;BME280;3244;42.708;23.288;2023-02-12T03:48:58;95963.84;;;1.67;51.61
6423;BME280;3244;42.708;23.288;2023-02-12T03:51:30;95962.25;;;1.74;52.12
6423;BME280;3244;42.708;23.288;2023-02-12T03:54:00;95960.59;;;1.71;52.22
6423;BME280;3244;42.708;23.288;2023-02-12T03:56:32;95954.13;;;1.88;51.47
6423;BME280;3244;42.708;23.288;2023-02-12T03:59:00;95956.53;;;1.81;51.89
6423;BME280;3244;42.708;23.288;2023-02-12T04:01:30;95960.81;;;1.88;51.88
6423;BME280;3244;42.708;23.288;2023-02-12T04:03:58;95957.50;;;1.90;52.24
6423;BME280;3244;42.708;23.288;2023-02-12T04:06:27;95955.59;;;1.76;52.53
6423;BME280;3244;42.708;23.288;2023-02-12T04:08:57;95963.91;;;1.70;52.43
6423;BME280;3244;42.708;23.288;2023-02-12T04:11:28;95960.59;;;1.71;51.65
6423;BME280;3244;42.708;23.288;2023-02-12T04:14:07;95959.63;;;1.64;51.77
6423;BME280;3244;42.708;23.288;2023-02-12T04:16:45;95964.03;;;1.79;51.79
6423;BME280;3244;42.708;23.288;2023-02-12T04:19:15;95960.69;;;1.80;52.00
6423;BME280;3244;42.708;23.288;2023-02-12T04:21:56;95975.97;;;1.95;52.60
6423;BME280;3244;42.708;23.288;2023-02-12T04:24:35;95965.94;;;1.95;51.62
6423;BME280;3244;42.708;23.288;2023-02-12T04:27:11;95980.19;;;2.01;51.36
6423;BME280;3244;42.708;23.288;2023-02-12T04:29:47;95971.81;;;1.99;52.25
6423;BME280;3244;42.708;23.288;2023-02-12T04:32:19;95973.50;;;2.00;52.11
6423;BME280;3244;42.708;23.288;2023-02-12T04:34:55;95974.53;;;2.13;51.58
6423;BME280;3244;42.708;23.288;2023-02-12T04:37:25;95971.94;;;2.07;50.95
6423;BME280;3244;42.708;23.288;2023-02-12T04:39:58;95972.66;;;1.98;52.02
6423;BME280;3244;42.708;23.288;2023-02-12T04:42:25;95971.81;;;1.97;52.04
6423;BME280;3244;42.708;23.288;2023-02-12T04:44:52;95974.31;;;1.97;51.77
6423;BME280;3244;42.708;23.288;2023-02-12T04:47:20;95978.59;;;2.06;52.13
6423;BME280;3244;42.708;23.288;2023-02-12T04:49:47;95979.59;;;2.16;52.19
6423;BME280;3244;42.708;23.288;2023-02-12T04:52:14;95981.31;;;2.20;51.80
6423;BME280;3244;42.708;23.288;2023-02-12T04:54:40;95978.75;;;2.15;51.74
6423;BME280;3244;42.708;23.288;2023-02-12T04:57:08;95984.69;;;2.23;51.27
6423;BME280;3244;42.708;23.288;2023-02-12T04:59:34;95985.53;;;2.22;51.36
6423;BME280;3244;42.708;23.288;2023-02-12T05:02:01;95989.75;;;2.28;52.20
6423;BME280;3244;42.708;23.288;2023-02-12T05:04:29;95988.06;;;2.27;51.79
6423;BME280;3244;42.708;23.288;2023-02-12T05:06:56;95993.22;;;2.36;51.40
6423;BME280;3244;42.708;23.288;2023-02-12T05:09:23;95996.63;;;2.41;51.28
6423;BME280;3244;42.708;23.288;2023-02-12T05:11:49;95993.31;;;2.42;50.99
6423;BME280;3244;42.708;23.288;2023-02-12T05:14:16;95990.84;;;2.45;51.54
6423;BME280;3244;42.708;23.288;2023-02-12T05:16:43;95990.03;;;2.46;51.86
6423;BME280;3244;42.708;23.288;2023-02-12T05:19:10;95990.03;;;2.46;51.49
6423;BME280;3244;42.708;23.288;2023-02-12T05:21:38;96002.56;;;2.49;51.04
6423;BME280;3244;42.708;23.288;2023-02-12T05:24:05;95996.78;;;2.55;51.06
6423;BME280;3244;42.708;23.288;2023-02-12T05:26:32;96000.97;;;2.54;51.73
6423;BME280;3244;42.708;23.288;2023-02-12T05:28:59;96001.03;;;2.59;51.46
6423;BME280;3244;42.708;23.288;2023-02-12T05:31:25;96010.25;;;2.60;50.87
6423;BME280;3244;42.708;23.288;2023-02-12T05:33:52;96011.13;;;2.63;50.68
6423;BME280;3244;42.708;23.288;2023-02-12T05:36:20;96010.34;;;2.67;50.63
6423;BME280;3244;42.708;23.288;2023-02-12T05:38:52;96015.38;;;2.67;51.08
6423;BME280;3244;42.708;23.288;2023-02-12T05:41:23;96024.53;;;2.64;52.19
6423;BME280;3244;42.708;23.288;2023-02-12T05:43:50;96020.38;;;2.67;52.57
6423;BME280;3244;42.708;23.288;2023-02-12T05:46:18;96024.63;;;2.73;52.16
6423;BME280;3244;42.708;23.288;2023-02-12T05:48:46;96002.75;;;2.61;52.83
6423;BME280;3244;42.708;23.288;2023-02-12T05:51:15;96030.38;;;2.64;53.20
6423;BME280;3244;42.708;23.288;2023-02-12T05:53:42;96033.72;;;2.63;54.23
6423;BME280;3244;42.708;23.288;2023-02-12T05:56:12;96033.69;;;2.62;54.53
6423;BME280;3244;42.708;23.288;2023-02-12T05:58:40;96034.47;;;2.58;55.55
6423;BME280;3244;42.708;23.288;2023-02-12T06:01:09;96041.06;;;2.50;57.44
6423;BME280;3244;42.708;23.288;2023-02-12T06:03:36;96045.22;;;2.49;57.44
6423;BME280;3244;42.708;23.288;2023-02-12T06:06:03;96046.06;;;2.48;57.36
6423;BME280;3244;42.708;23.288;2023-02-12T06:08:30;96045.22;;;2.46;58.43
6423;BME280;3244;42.708;23.288;2023-02-12T06:10:59;96045.09;;;2.38;58.99
6423;BME280;3244;42.708;23.288;2023-02-12T06:13:28;96033.50;;;2.45;58.37
6423;BME280;3244;42.708;23.288;2023-02-12T06:15:56;96048.66;;;2.54;58.83
6423;BME280;3244;42.708;23.288;2023-02-12T06:18:22;96045.41;;;2.61;58.95
6423;BME280;3244;42.708;23.288;2023-02-12T06:20:50;96052.06;;;2.59;60.19
6423;BME280;3244;42.708;23.288;2023-02-12T06:23:18;96053.81;;;2.65;60.47
6423;BME280;3244;42.708;23.288;2023-02-12T06:25:45;96048.84;;;2.69;60.30
6423;BME280;3244;42.708;23.288;2023-02-12T06:28:12;96058.78;;;2.60;61.77
6423;BME280;3244;42.708;23.288;2023-02-12T06:30:40;96057.22;;;2.68;61.45
6423;BME280;3244;42.708;23.288;2023-02-12T06:33:07;96051.38;;;2.72;62.09
6423;BME280;3244;42.708;23.288;2023-02-12T06:35:34;96061.59;;;2.86;62.25
6423;BME280;3244;42.708;23.288;2023-02-12T06:38:01;96059.84;;;2.79;62.89
6423;BME280;3244;42.708;23.288;2023-02-12T06:40:28;96064.91;;;2.84;63.49
6423;BME280;3244;42.708;23.288;2023-02-12T06:42:55;96070.81;;;2.86;63.61
6423;BME280;3244;42.708;23.288;2023-02-12T06:45:22;96063.41;;;2.95;63.89
6423;BME280;3244;42.708;23.288;2023-02-12T06:47:50;96053.28;;;2.90;64.01
6423;BME280;3244;42.708;23.288;2023-02-12T06:50:17;96056.72;;;2.97;64.71
6423;BME280;3244;42.708;23.288;2023-02-12T06:52:44;96060.38;;;3.26;64.19
6423;BME280;3244;42.708;23.288;2023-02-12T06:55:11;96054.53;;;3.27;63.95
6423;BME280;3244;42.708;23.288;2023-02-12T06:57:38;96055.28;;;3.19;64.61
6423;BME280;3244;42.708;23.288;2023-02-12T07:00:06;96052.78;;;3.19;65.11
6423;BME280;3244;42.708;23.288;2023-02-12T07:02:32;96058.78;;;3.34;64.52
6423;BME280;3244;42.708;23.288;2023-02-12T07:05:01;96058.06;;;3.43;64.04
6423;BME280;3244;42.708;23.288;2023-02-12T07:07:27;96058.75;;;3.31;64.29
6423;BME280;3244;42.708;23.288;2023-02-12T07:09:54;96059.75;;;3.46;64.16
6423;BME280;3244;42.708;23.288;2023-02-12T07:12:21;96050.47;;;3.38;64.04
6423;BME280;3244;42.708;23.288;2023-02-12T07:14:48;96060.47;;;3.34;63.69
6423;BME280;3244;42.708;23.288;2023-02-12T07:17:14;96056.25;;;3.31;63.65
6423;BME280;3244;42.708;23.288;2023-02-12T07:19:41;96071.06;;;3.07;64.67
6423;BME280;3244;42.708;23.288;2023-02-12T07:22:09;96070.38;;;3.23;64.29
6423;BME280;3244;42.708;23.288;2023-02-12T07:24:36;96075.38;;;3.22;64.16
6423;BME280;3244;42.708;23.288;2023-02-12T07:27:03;96071.22;;;3.24;64.47
6423;BME280;3244;42.708;23.288;2023-02-12T07:29:30;96073.03;;;3.35;63.67
6423;BME280;3244;42.708;23.288;2023-02-12T07:31:57;96070.59;;;3.40;63.53
6423;BME280;3244;42.708;23.288;2023-02-12T07:34:23;96072.19;;;3.35;63.92
6423;BME280;3244;42.708;23.288;2023-02-12T07:36:50;96060.47;;;3.34;63.52
6423;BME280;3244;42.708;23.288;2023-02-12T07:39:18;96072.84;;;3.17;64.37
6423;BME280;3244;42.708;23.288;2023-02-12T07:41:45;96068.69;;;3.18;64.21
6423;BME280;3244;42.708;23.288;2023-02-12T07:44:12;96074.59;;;3.24;64.22
6423;BME280;3244;42.708;23.288;2023-02-12T07:46:41;96075.41;;;3.20;64.34
6423;BME280;3244;42.708;23.288;2023-02-12T07:49:12;96087.94;;;3.17;64.40
6423;BME280;3244;42.708;23.288;2023-02-12T07:51:39;96089.56;;;3.15;64.04
6423;BME280;3244;42.708;23.288;2023-02-12T07:54:06;96082.81;;;3.11;64.17
6423;BME280;3244;42.708;23.288;2023-02-12T07:56:35;96086.28;;;3.19;64.96
6423;BME280;3244;42.708;23.288;2023-02-12T07:59:06;96086.25;;;3.18;65.19
6423;BME280;3244;42.708;23.288;2023-02-12T08:01:35;96090.38;;;3.13;65.04
6423;BME280;3244;42.708;23.288;2023-02-12T08:04:04;96094.44;;;3.03;65.20
6423;BME280;3244;42.708;23.288;2023-02-12T08:06:33;96095.31;;;3.05;65.36
6423;BME280;3244;42.708;23.288;2023-02-12T08:09:03;96090.28;;;3.05;65.31
6423;BME280;3244;42.708;23.288;2023-02-12T08:11:30;96087.00;;;3.11;65.87
6423;BME280;3244;42.708;23.288;2023-02-12T08:13:59;96081.19;;;3.13;65.63
6423;BME280;3244;42.708;23.288;2023-02-12T08:16:27;96084.72;;;3.30;65.30
6423;BME280;3244;42.708;23.288;2023-02-12T08:18:55;96083.97;;;3.39;64.77
6423;BME280;3244;42.708;23.288;2023-02-12T08:21:23;96078.91;;;3.36;64.73
6423;BME280;3244;42.708;23.288;2023-02-12T08:23:52;96079.72;;;3.33;65.70
6423;BME280;3244;42.708;23.288;2023-02-12T08:26:21;96082.34;;;3.42;65.12
6423;BME280;3244;42.708;23.288;2023-02-12T08:28:50;96094.88;;;3.39;64.87
6423;BME280;3244;42.708;23.288;2023-02-12T08:31:20;96097.50;;;3.53;64.33
6423;BME280;3244;42.708;23.288;2023-02-12T08:33:48;96091.59;;;3.50;64.91
6423;BME280;3244;42.708;23.288;2023-02-12T08:36:20;96105.06;;;3.55;64.52
6423;BME280;3244;42.708;23.288;2023-02-12T08:38:47;96115.94;;;3.54;64.50
6423;BME280;3244;42.708;23.288;2023-02-12T08:41:16;96106.78;;;3.59;64.99
6423;BME280;3244;42.708;23.288;2023-02-12T08:43:44;96104.34;;;3.66;64.25
6423;BME280;3244;42.708;23.288;2023-02-12T08:46:12;96117.81;;;3.70;64.37
6423;BME280;3244;42.708;23.288;2023-02-12T08:48:41;96115.22;;;3.64;64.38
6423;BME280;3244;42.708;23.288;2023-02-12T08:51:10;96112.75;;;3.67;64.13
6423;BME280;3244;42.708;23.288;2023-02-12T08:53:38;96116.97;;;3.72;64.66
6423;BME280;3244;42.708;23.288;2023-02-12T08:56:06;96122.94;;;3.82;64.06
6423;BME280;3244;42.708;23.288;2023-02-12T08:58:33;96135.56;;;3.88;63.59
6423;BME280;3244;42.708;23.288;2023-02-12T09:01:00;96127.03;;;3.74;64.47
6423;BME280;3244;42.708;23.288;2023-02-12T09:03:27;96131.31;;;3.81;64.25
6423;BME280;3244;42.708;23.288;2023-02-12T09:05:55;96134.75;;;3.91;64.03
6423;BME280;3244;42.708;23.288;2023-02-12T09:08:22;96138.91;;;3.87;64.21
6423;BME280;3244;42.708;23.288;2023-02-12T09:10:49;96148.97;;;3.87;64.44
6423;BME280;3244;42.708;23.288;2023-02-12T09:13:16;96151.47;;;3.86;64.10
6423;BME280;3244;42.708;23.288;2023-02-12T09:15:44;96151.56;;;3.93;63.92
6423;BME280;3244;42.708;23.288;2023-02-12T09:18:12;96154.88;;;3.89;64.24
6423;BME280;3244;42.708;23.288;2023-02-12T09:20:41;96150.66;;;3.88;64.56
6423;BME280;3244;42.708;23.288;2023-02-12T09:23:11;96142.38;;;4.01;64.07
6423;BME280;3244;42.708;23.288;2023-02-12T09:25:39;96146.75;;;4.22;63.89
6423;BME280;3244;42.708;23.288;2023-02-12T09:28:06;96140.88;;;4.22;63.55
6423;BME280;3244;42.708;23.288;2023-02-12T09:30:34;96144.31;;;4.30;63.22
6423;BME280;3244;42.708;23.288;2023-02-12T09:33:01;96147.75;;;4.41;62.76
6423;BME280;3244;42.708;23.288;2023-02-12T09:35:28;96145.28;;;4.47;62.55
6423;BME280;3244;42.708;23.288;2023-02-12T09:37:55;96142.81;;;4.56;62.46
6423;BME280;3244;42.708;23.288;2023-02-12T09:40:30;96144.56;;;4.63;62.22
6423;BME280;3244;42.708;23.288;2023-02-12T09:43:05;96153.81;;;4.66;61.95
6423;BME280;3244;42.708;23.288;2023-02-12T09:45:38;96151.28;;;4.64;62.20
6423;BME280;3244;42.708;23.288;2023-02-12T09:48:17;96155.56;;;4.77;61.87
6423;BME280;3244;42.708;23.288;2023-02-12T09:50:54;96161.47;;;4.84;61.61
6423;BME280;3244;42.708;23.288;2023-02-12T09:53:24;96165.75;;;4.93;60.91
6423;BME280;3244;42.708;23.288;2023-02-12T09:55:53;96169.09;;;4.96;60.56
6423;BME280;3244;42.708;23.288;2023-02-12T09:58:27;96174.97;;;4.92;60.92
6423;BME280;3244;42.708;23.288;2023-02-12T10:00:55;96171.59;;;4.89;60.88
6423;BME280;3244;42.708;23.288;2023-02-12T10:03:22;96172.44;;;4.97;61.05
6423;BME280;3244;42.708;23.288;2023-02-12T10:05:51;96171.69;;;5.07;60.71
6423;BME280;3244;42.708;23.288;2023-02-12T10:08:42;96165.91;;;5.29;59.88
6423;BME280;3244;42.708;23.288;2023-02-12T10:11:28;96179.41;;;5.40;59.82
6423;BME280;3244;42.708;23.288;2023-02-12T10:14:04;96165.19;;;5.61;58.94
6423;BME280;3244;42.708;23.288;2023-02-12T10:16:42;96163.53;;;5.72;58.85
6423;BME280;3244;42.708;23.288;2023-02-12T10:19:24;96166.06;;;5.73;58.35
6423;BME280;3244;42.708;23.288;2023-02-12T10:21:58;96166.06;;;5.70;59.12
6423;BME280;3244;42.708;23.288;2023-02-12T10:24:47;96158.50;;;5.72;58.58
6423;BME280;3244;42.708;23.288;2023-02-12T10:27:24;96161.03;;;5.73;58.42
6423;BME280;3244;42.708;23.288;2023-02-12T10:29:54;96156.06;;;5.90;58.18
6423;BME280;3244;42.708;23.288;2023-02-12T10:32:26;96165.34;;;6.09;57.77
6423;BME280;3244;42.708;23.288;2023-02-12T10:34:55;96150.22;;;6.37;56.93
6423;BME280;3244;42.708;23.288;2023-02-12T10:37:28;96154.41;;;6.64;56.40
6423;BME280;3244;42.708;23.288;2023-02-12T10:40:01;96146.75;;;7.03;54.96
6423;BME280;3244;42.708;23.288;2023-02-12T10:42:35;96152.47;;;7.56;54.80
6423;BME280;3244;42.708;23.288;2023-02-12T10:45:04;96150.50;;;8.08;52.12
6423;BME280;3244;42.708;23.288;2023-02-12T10:47:31;96140.19;;;8.38;51.39
6423;BME280;3244;42.708;23.288;2023-02-12T10:50:00;96155.38;;;8.38;50.90
6423;BME280;3244;42.708;23.288;2023-02-12T10:52:34;96146.13;;;8.30;51.29
6423;BME280;3244;42.708;23.288;2023-02-12T10:55:22;96153.72;;;8.30;51.01
6423;BME280;3244;42.708;23.288;2023-02-12T10:57:51;96147.00;;;8.23;50.67
6423;BME280;3244;42.708;23.288;2023-02-12T11:00:24;96156.41;;;8.08;50.73
6423;BME280;3244;42.708;23.288;2023-02-12T11:03:18;96154.91;;;7.77;52.21
6423;BME280;3244;42.708;23.288;2023-02-12T11:05:46;96155.03;;;7.43;52.60
6423;BME280;3244;42.708;23.288;2023-02-12T11:08:28;96159.31;;;7.28;52.65
6423;BME280;3244;42.708;23.288;2023-02-12T11:11:02;96157.66;;;7.25;53.60
6423;BME280;3244;42.708;23.288;2023-02-12T11:13:31;96158.47;;;7.30;53.44
6423;BME280;3244;42.708;23.288;2023-02-12T11:15:57;96160.16;;;7.37;53.52
6423;BME280;3244;42.708;23.288;2023-02-12T11:18:27;96151.59;;;7.63;53.36
6423;BME280;3244;42.708;23.288;2023-02-12T11:20:59;96150.69;;;7.77;51.81
6423;BME280;3244;42.708;23.288;2023-02-12T11:23:28;96144.72;;;7.86;51.99
6423;BME280;3244;42.708;23.288;2023-02-12T11:25:58;96151.41;;;7.93;52.14
6423;BME280;3244;42.708;23.288;2023-02-12T11:28:25;96149.72;;;7.98;51.87
6423;BME280;3244;42.708;23.288;2023-02-12T11:30:56;96150.53;;;8.05;51.52
6423;BME280;3244;42.708;23.288;2023-02-12T11:33:29;96154.75;;;8.01;51.66
6423;BME280;3244;42.708;23.288;2023-02-12T11:35:58;96152.22;;;8.00;51.46
6423;BME280;3244;42.708;23.288;2023-02-12T11:38:36;96149.75;;;7.92;51.34
6423;BME280;3244;42.708;23.288;2023-02-12T11:41:15;96151.41;;;7.98;51.39
6423;BME280;3244;42.708;23.288;2023-02-12T11:43:44;96152.25;;;7.94;51.35
6423;BME280;3244;42.708;23.288;2023-02-12T11:46:18;96138.81;;;7.90;50.98
6423;BME280;3244;42.708;23.288;2023-02-12T11:48:46;96151.47;;;7.90;51.45
6423;BME280;3244;42.708;23.288;2023-02-12T11:51:18;96142.22;;;7.83;51.96
6423;BME280;3244;42.708;23.288;2023-02-12T11:53:48;96141.44;;;7.69;53.63
6423;BME280;3244;42.708;23.288;2023-02-12T11:56:16;96139.69;;;7.83;52.91
6423;BME280;3244;42.708;23.288;2023-02-12T11:58:44;96142.25;;;7.72;53.16
6423;BME280;3244;42.708;23.288;2023-02-12T12:01:17;96153.34;;;7.48;53.48
6423;BME280;3244;42.708;23.288;2023-02-12T12:03:52;96157.56;;;7.43;53.99
6423;BME280;3244;42.708;23.288;2023-02-12T12:06:31;96148.38;;;7.30;54.05
6423;BME280;3244;42.708;23.288;2023-02-12T12:09:04;96153.41;;;7.36;53.94
6423;BME280;3244;42.708;23.288;2023-02-12T12:11:42;96159.25;;;7.49;53.87
6423;BME280;3244;42.708;23.288;2023-02-12T12:14:16;96160.94;;;7.47;54.24
6423;BME280;3244;42.708;23.288;2023-02-12T12:16:49;96153.34;;;7.51;52.92
6423;BME280;3244;42.708;23.288;2023-02-12T12:19:42;96160.09;;;7.48;53.10
6423;BME280;3244;42.708;23.288;2023-02-12T12:22:30;96158.41;;;7.48;53.43
6423;BME280;3244;42.708;23.288;2023-02-12T12:25:09;96148.25;;;7.55;52.94
6423;BME280;3244;42.708;23.288;2023-02-12T12:27:43;96161.78;;;7.49;53.48
6423;BME280;3244;42.708;23.288;2023-02-12T12:33:42;96155.09;;;7.28;53.75
6423;BME280;3244;42.708;23.288;2023-02-12T12:39:16;96166.09;;;7.20;53.68
6423;BME280;3244;42.708;23.288;2023-02-12T12:42:10;96162.75;;;7.14;53.95
6423;BME280;3244;42.708;23.288;2023-02-12T12:44:53;96161.97;;;6.91;54.76
6423;BME280;3244;42.708;23.288;2023-02-12T12:47:34;96164.50;;;6.88;55.18
6423;BME280;3244;42.708;23.288;2023-02-12T12:50:23;96169.53;;;6.88;54.54
6423;BME280;3244;42.708;23.288;2023-02-12T12:53:18;96165.31;;;6.95;54.80
6423;BME280;3244;42.708;23.288;2023-02-12T12:56:05;96172.06;;;6.90;55.30
6423;BME280;3244;42.708;23.288;2023-02-12T12:58:44;96178.78;;;6.95;54.90
6423;BME280;3244;42.708;23.288;2023-02-12T13:01:47;96171.22;;;6.89;54.80
6423;BME280;3244;42.708;23.288;2023-02-12T13:04:31;96182.16;;;6.96;55.62
6423;BME280;3244;42.708;23.288;2023-02-12T13:07:12;96184.72;;;6.93;55.88
6423;BME280;3244;42.708;23.288;2023-02-12T13:09:48;96187.19;;;7.09;54.74
6423;BME280;3244;42.708;23.288;2023-02-12T13:12:39;96189.72;;;7.09;55.19
6423;BME280;3244;42.708;23.288;2023-02-12T13:15:18;96185.50;;;7.13;55.02
6423;BME280;3244;42.708;23.288;2023-02-12T13:17:52;96189.72;;;7.11;54.34
6423;BME280;3244;42.708;23.288;2023-02-12T13:20:32;96188.03;;;7.11;54.37
6423;BME280;3244;42.708;23.288;2023-02-12T13:23:10;96190.56;;;7.13;54.74
6423;BME280;3244;42.708;23.288;2023-02-12T13:25:43;96193.09;;;7.11;54.43
6423;BME280;3244;42.708;23.288;2023-02-12T13:28:18;96191.41;;;7.16;54.50
6423;BME280;3244;42.708;23.288;2023-02-12T13:30:48;96195.56;;;7.34;54.56
6423;BME280;3244;42.708;23.288;2023-02-12T13:33:20;96187.06;;;7.43;53.85
6423;BME280;3244;42.708;23.288;2023-02-12T13:35:50;96189.66;;;7.25;53.87
6423;BME280;3244;42.708;23.288;2023-02-12T13:38:22;96198.16;;;7.11;53.59
6423;BME280;3244;42.708;23.288;2023-02-12T13:40:53;96199.00;;;7.03;54.81
6423;BME280;3244;42.708;23.288;2023-02-12T13:43:37;96190.56;;;7.01;54.71
6423;BME280;3244;42.708;23.288;2023-02-12T13:46:13;96197.31;;;6.96;54.97
6423;BME280;3244;42.708;23.288;2023-02-12T13:48:55;96204.09;;;6.85;55.14
6423;BME280;3244;42.708;23.288;2023-02-12T13:51:31;96215.84;;;6.70;55.38
6423;BME280;3244;42.708;23.288;2023-02-12T13:54:15;96217.56;;;6.62;55.45